Terminal Aerodrome Forecast
Issued by NWS Grand Forks, ND

Home | Current Version | Previous Version | Graphics & Text | Print | Product List | Glossary On
Versions: 1 2 3 4 5 6 7 8 9 10 11 12 13
056
FTUS43 KFGF 271909 AAA
TAFFAR
TAF AMD
KFAR 271909Z 2719/2818 07016G25KT P6SM SCT200
     FM280300 07009KT P6SM BKN150=

USA.gov is the U.S. government's official web portal to all federal, state and local government web resources and services.